sensor_id;sensor_type;location;lat;lon;timestamp;pressure;altitude;pressure_sealevel;temperature;humidity
69171;BME280;56279;47.902;12.308;2023-08-20T00:01:56;95775.00;;;21.37;75.14
69171;BME280;56279;47.902;12.308;2023-08-20T00:03:59;95767.59;;;21.33;75.27
69171;BME280;56279;47.902;12.308;2023-08-20T00:06:02;95761.31;;;21.29;75.55
69171;BME280;56279;47.902;12.308;2023-08-20T00:08:05;95770.50;;;21.28;75.33
69171;BME280;56279;47.902;12.308;2023-08-20T00:10:07;95767.34;;;21.26;74.91
69171;BME280;56279;47.902;12.308;2023-08-20T00:12:08;95771.97;;;21.26;74.74
69171;BME280;56279;47.902;12.308;2023-08-20T00:14:16;95769.59;;;21.24;74.49
69171;BME280;56279;47.902;12.308;2023-08-20T00:16:17;95771.84;;;21.22;75.37
69171;BME280;56279;47.902;12.308;2023-08-20T00:18:19;95768.69;;;21.20;76.04
69171;BME280;56279;47.902;12.308;2023-08-20T00:20:21;95766.34;;;21.19;77.01
69171;BME280;56279;47.902;12.308;2023-08-20T00:22:24;95774.28;;;21.15;77.84
69171;BME280;56279;47.902;12.308;2023-08-20T00:24:26;95771.16;;;21.13;78.88
69171;BME280;56279;47.902;12.308;2023-08-20T00:26:27;95774.47;;;21.10;79.41
69171;BME280;56279;47.902;12.308;2023-08-20T00:28:29;95773.25;;;21.08;79.95
69171;BME280;56279;47.902;12.308;2023-08-20T00:30:30;95772.00;;;21.05;80.67
69171;BME280;56279;47.902;12.308;2023-08-20T00:32:32;95766.50;;;21.02;81.06
69171;BME280;56279;47.902;12.308;2023-08-20T00:34:33;95775.22;;;20.99;81.26
69171;BME280;56279;47.902;12.308;2023-08-20T00:36:35;95773.84;;;20.93;81.82
69171;BME280;56279;47.902;12.308;2023-08-20T00:38:36;95783.66;;;20.89;82.60
69171;BME280;56279;47.902;12.308;2023-08-20T00:40:38;95773.63;;;20.86;82.60
69171;BME280;56279;47.902;12.308;2023-08-20T00:42:39;95770.47;;;20.84;83.06
69171;BME280;56279;47.902;12.308;2023-08-20T00:44:43;95773.03;;;20.80;83.75
69171;BME280;56279;47.902;12.308;2023-08-20T00:46:47;95777.16;;;20.78;83.44
69171;BME280;56279;47.902;12.308;2023-08-20T00:48:49;95776.69;;;20.76;83.82
69171;BME280;56279;47.902;12.308;2023-08-20T00:50:50;95778.94;;;20.74;83.78
69171;BME280;56279;47.902;12.308;2023-08-20T00:52:52;95781.16;;;20.72;83.72
69171;BME280;56279;47.902;12.308;2023-08-20T00:54:53;95781.47;;;20.70;83.46
69171;BME280;56279;47.902;12.308;2023-08-20T00:56:55;95776.00;;;20.66;83.21
69171;BME280;56279;47.902;12.308;2023-08-20T00:58:58;95773.31;;;20.66;83.37
69171;BME280;56279;47.902;12.308;2023-08-20T01:01:00;95778.22;;;20.64;83.14
69171;BME280;56279;47.902;12.308;2023-08-20T01:03:01;95776.97;;;20.62;82.63
69171;BME280;56279;47.902;12.308;2023-08-20T01:05:06;95778.41;;;20.59;82.74
69171;BME280;56279;47.902;12.308;2023-08-20T01:09:26;95777.06;;;20.53;82.62
69171;BME280;56279;47.902;12.308;2023-08-20T01:11:37;95781.63;;;20.53;82.43
69171;BME280;56279;47.902;12.308;2023-08-20T01:13:41;95776.59;;;20.51;82.38
69171;BME280;56279;47.902;12.308;2023-08-20T01:15:43;95770.13;;;20.52;82.08
69171;BME280;56279;47.902;12.308;2023-08-20T01:17:44;95778.16;;;20.52;82.01
69171;BME280;56279;47.902;12.308;2023-08-20T01:19:47;95773.59;;;20.53;82.09
69171;BME280;56279;47.902;12.308;2023-08-20T01:26:43;95770.25;;;20.56;81.54
69171;BME280;56279;47.902;12.308;2023-08-20T01:28:50;95776.38;;;20.56;81.44
69171;BME280;56279;47.902;12.308;2023-08-20T01:30:54;95765.66;;;20.56;81.41
69171;BME280;56279;47.902;12.308;2023-08-20T01:32:58;95771.81;;;20.57;81.09
69171;BME280;56279;47.902;12.308;2023-08-20T01:34:59;95770.72;;;20.58;81.06
69171;BME280;56279;47.902;12.308;2023-08-20T01:37:01;95765.34;;;20.58;81.02
69171;BME280;56279;47.902;12.308;2023-08-20T01:39:03;95770.38;;;20.59;81.00
69171;BME280;56279;47.902;12.308;2023-08-20T01:41:06;95775.75;;;20.59;80.75
69171;BME280;56279;47.902;12.308;2023-08-20T01:43:08;95771.97;;;20.60;80.48
69171;BME280;56279;47.902;12.308;2023-08-20T01:45:09;95778.09;;;20.61;80.84
69171;BME280;56279;47.902;12.308;2023-08-20T01:47:12;95773.50;;;20.61;80.08
69171;BME280;56279;47.902;12.308;2023-08-20T01:49:13;95781.09;;;20.59;80.11
69171;BME280;56279;47.902;12.308;2023-08-20T01:51:14;95778.75;;;20.58;80.66
69171;BME280;56279;47.902;12.308;2023-08-20T01:53:16;95782.09;;;20.55;80.71
69171;BME280;56279;47.902;12.308;2023-08-20T01:55:17;95784.63;;;20.51;80.33
69171;BME280;56279;47.902;12.308;2023-08-20T01:57:19;95799.97;;;20.51;80.67
69171;BME280;56279;47.902;12.308;2023-08-20T01:59:21;95800.59;;;20.48;80.48
69171;BME280;56279;47.902;12.308;2023-08-20T02:01:23;95802.03;;;20.45;80.98
69171;BME280;56279;47.902;12.308;2023-08-20T02:03:25;95800.34;;;20.41;81.05
69171;BME280;56279;47.902;12.308;2023-08-20T02:05:27;95804.34;;;20.35;81.33
69171;BME280;56279;47.902;12.308;2023-08-20T02:07:29;95810.69;;;20.30;82.00
69171;BME280;56279;47.902;12.308;2023-08-20T02:09:31;95803.47;;;20.22;82.32
69171;BME280;56279;47.902;12.308;2023-08-20T02:11:32;95802.06;;;20.16;83.08
69171;BME280;56279;47.902;12.308;2023-08-20T02:13:37;95802.09;;;20.08;83.22
69171;BME280;56279;47.902;12.308;2023-08-20T02:15:38;95796.81;;;19.99;84.42
69171;BME280;56279;47.902;12.308;2023-08-20T02:17:40;95798.09;;;19.93;84.74
69171;BME280;56279;47.902;12.308;2023-08-20T02:19:41;95795.28;;;19.89;85.25
69171;BME280;56279;47.902;12.308;2023-08-20T02:21:42;95795.47;;;19.84;84.96
69171;BME280;56279;47.902;12.308;2023-08-20T02:23:45;95792.97;;;19.79;85.83
69171;BME280;56279;47.902;12.308;2023-08-20T02:25:47;95787.03;;;19.74;85.66
69171;BME280;56279;47.902;12.308;2023-08-20T02:27:50;95787.19;;;19.69;86.25
69171;BME280;56279;47.902;12.308;2023-08-20T02:29:52;95788.16;;;19.64;86.52
69171;BME280;56279;47.902;12.308;2023-08-20T02:31:53;95789.44;;;19.58;86.93
69171;BME280;56279;47.902;12.308;2023-08-20T02:33:54;95782.38;;;19.54;86.83
69171;BME280;56279;47.902;12.308;2023-08-20T02:36:01;95783.34;;;19.49;86.94
69171;BME280;56279;47.902;12.308;2023-08-20T02:38:04;95788.88;;;19.44;87.22
69171;BME280;56279;47.902;12.308;2023-08-20T02:40:08;95783.38;;;19.41;87.37
69171;BME280;56279;47.902;12.308;2023-08-20T02:42:11;95789.38;;;19.38;87.97
69171;BME280;56279;47.902;12.308;2023-08-20T02:44:13;95785.75;;;19.33;87.68
69171;BME280;56279;47.902;12.308;2023-08-20T02:46:14;95786.38;;;19.30;87.98
69171;BME280;56279;47.902;12.308;2023-08-20T02:48:17;95792.38;;;19.27;88.31
69171;BME280;56279;47.902;12.308;2023-08-20T02:50:18;95787.97;;;19.23;87.95
69171;BME280;56279;47.902;12.308;2023-08-20T02:52:20;95798.22;;;19.21;87.89
69171;BME280;56279;47.902;12.308;2023-08-20T02:54:21;95796.19;;;19.18;88.22
69171;BME280;56279;47.902;12.308;2023-08-20T02:56:23;95793.69;;;19.13;88.45
69171;BME280;56279;47.902;12.308;2023-08-20T02:58:24;95804.22;;;19.09;89.24
69171;BME280;56279;47.902;12.308;2023-08-20T03:00:26;95804.88;;;19.06;89.33
69171;BME280;56279;47.902;12.308;2023-08-20T03:02:27;95805.19;;;19.05;89.54
69171;BME280;56279;47.902;12.308;2023-08-20T03:04:28;95805.19;;;19.05;89.36
69171;BME280;56279;47.902;12.308;2023-08-20T03:06:30;95794.00;;;19.03;89.42
69171;BME280;56279;47.902;12.308;2023-08-20T03:08:31;95792.91;;;19.04;89.59
69171;BME280;56279;47.902;12.308;2023-08-20T03:10:34;95796.69;;;19.03;90.32
69171;BME280;56279;47.902;12.308;2023-08-20T03:12:36;95802.03;;;19.03;90.16
69171;BME280;56279;47.902;12.308;2023-08-20T03:14:37;95808.66;;;19.05;90.31
69171;BME280;56279;47.902;12.308;2023-08-20T03:16:38;95800.63;;;19.05;90.28
69171;BME280;56279;47.902;12.308;2023-08-20T03:18:40;95807.06;;;19.04;90.53
69171;BME280;56279;47.902;12.308;2023-08-20T03:20:42;95795.13;;;19.02;90.50
69171;BME280;56279;47.902;12.308;2023-08-20T03:22:43;95800.94;;;19.04;90.17
69171;BME280;56279;47.902;12.308;2023-08-20T03:24:44;95796.34;;;19.04;90.37
69171;BME280;56279;47.902;12.308;2023-08-20T03:26:45;95796.84;;;19.06;90.07
69171;BME280;56279;47.902;12.308;2023-08-20T03:28:49;95804.88;;;19.06;89.79
69171;BME280;56279;47.902;12.308;2023-08-20T03:30:50;95801.06;;;19.07;90.13
69171;BME280;56279;47.902;12.308;2023-08-20T03:32:54;95792.25;;;19.07;89.87
69171;BME280;56279;47.902;12.308;2023-08-20T03:34:55;95796.53;;;19.08;89.39
69171;BME280;56279;47.902;12.308;2023-08-20T03:36:57;95806.44;;;19.07;89.36
69171;BME280;56279;47.902;12.308;2023-08-20T03:38:58;95804.56;;;19.08;89.04
69171;BME280;56279;47.902;12.308;2023-08-20T03:41:00;95811.16;;;19.10;88.45
69171;BME280;56279;47.902;12.308;2023-08-20T03:43:01;95807.69;;;19.10;88.21
69171;BME280;56279;47.902;12.308;2023-08-20T03:45:05;95807.69;;;19.10;88.34
69171;BME280;56279;47.902;12.308;2023-08-20T03:47:06;95808.03;;;19.08;88.28
69171;BME280;56279;47.902;12.308;2023-08-20T03:49:08;95809.91;;;19.08;88.47
69171;BME280;56279;47.902;12.308;2023-08-20T03:51:09;95812.91;;;19.06;88.72
69171;BME280;56279;47.902;12.308;2023-08-20T03:53:10;95814.78;;;19.06;88.84
69171;BME280;56279;47.902;12.308;2023-08-20T03:55:12;95815.09;;;19.04;89.25
69171;BME280;56279;47.902;12.308;2023-08-20T03:57:13;95819.22;;;19.02;89.35
69171;BME280;56279;47.902;12.308;2023-08-20T03:59:14;95817.63;;;19.01;89.45
69171;BME280;56279;47.902;12.308;2023-08-20T04:01:16;95817.16;;;18.99;89.98
69171;BME280;56279;47.902;12.308;2023-08-20T04:03:17;95819.38;;;18.97;90.00
69171;BME280;56279;47.902;12.308;2023-08-20T04:05:21;95810.56;;;18.96;90.02
69171;BME280;56279;47.902;12.308;2023-08-20T04:07:22;95815.44;;;18.94;89.92
69171;BME280;56279;47.902;12.308;2023-08-20T04:09:26;95821.88;;;18.93;89.58
69171;BME280;56279;47.902;12.308;2023-08-20T04:11:27;95821.75;;;18.90;89.83
69171;BME280;56279;47.902;12.308;2023-08-20T04:13:30;95818.59;;;18.88;90.08
69171;BME280;56279;47.902;12.308;2023-08-20T04:15:32;95831.47;;;18.86;90.15
69171;BME280;56279;47.902;12.308;2023-08-20T04:17:33;95829.75;;;18.81;89.49
69171;BME280;56279;47.902;12.308;2023-08-20T04:19:36;95832.75;;;18.80;89.14
69171;BME280;56279;47.902;12.308;2023-08-20T04:21:37;95844.25;;;18.80;89.46
69171;BME280;56279;47.902;12.308;2023-08-20T04:23:40;95836.50;;;18.79;89.54
69171;BME280;56279;47.902;12.308;2023-08-20T04:25:42;95839.19;;;18.79;89.52
69171;BME280;56279;47.902;12.308;2023-08-20T04:27:44;95840.31;;;18.78;90.04
69171;BME280;56279;47.902;12.308;2023-08-20T04:29:46;95844.88;;;18.77;90.16
69171;BME280;56279;47.902;12.308;2023-08-20T04:31:47;95843.31;;;18.76;90.12
69171;BME280;56279;47.902;12.308;2023-08-20T04:33:48;95850.22;;;18.77;90.48
69171;BME280;56279;47.902;12.308;2023-08-20T04:35:55;95850.69;;;18.79;90.28
69171;BME280;56279;47.902;12.308;2023-08-20T04:37:56;95852.25;;;18.80;89.91
69171;BME280;56279;47.902;12.308;2023-08-20T04:40:03;95848.19;;;18.83;89.96
69171;BME280;56279;47.902;12.308;2023-08-20T04:42:07;95848.66;;;18.85;89.60
69171;BME280;56279;47.902;12.308;2023-08-20T04:44:08;95847.22;;;18.87;89.33
69171;BME280;56279;47.902;12.308;2023-08-20T04:46:10;95860.75;;;18.91;89.23
69171;BME280;56279;47.902;12.308;2023-08-20T04:48:12;95851.00;;;18.95;89.38
69171;BME280;56279;47.902;12.308;2023-08-20T04:50:13;95852.25;;;18.97;88.97
69171;BME280;56279;47.902;12.308;2023-08-20T04:52:14;95855.41;;;18.99;89.31
69171;BME280;56279;47.902;12.308;2023-08-20T04:54:16;95852.88;;;19.03;89.60
69171;BME280;56279;47.902;12.308;2023-08-20T04:56:18;95843.88;;;19.07;89.24
69171;BME280;56279;47.902;12.308;2023-08-20T04:58:20;95850.16;;;19.11;89.25
69171;BME280;56279;47.902;12.308;2023-08-20T05:00:22;95844.66;;;19.16;88.82
69171;BME280;56279;47.902;12.308;2023-08-20T05:02:28;95849.06;;;19.21;88.90
69171;BME280;56279;47.902;12.308;2023-08-20T05:04:32;95850.78;;;19.25;88.79
69171;BME280;56279;47.902;12.308;2023-08-20T05:06:33;95856.75;;;19.31;88.56
69171;BME280;56279;47.902;12.308;2023-08-20T05:08:35;95853.63;;;19.38;88.79
69171;BME280;56279;47.902;12.308;2023-08-20T05:10:36;95859.13;;;19.41;88.34
69171;BME280;56279;47.902;12.308;2023-08-20T05:12:38;95855.16;;;19.47;88.30
69171;BME280;56279;47.902;12.308;2023-08-20T05:14:40;95851.22;;;19.53;87.72
69171;BME280;56279;47.902;12.308;2023-08-20T05:16:42;95857.97;;;19.59;87.70
69171;BME280;56279;47.902;12.308;2023-08-20T05:18:43;95865.50;;;19.66;87.79
69171;BME280;56279;47.902;12.308;2023-08-20T05:20:45;95865.34;;;19.71;87.60
69171;BME280;56279;47.902;12.308;2023-08-20T05:22:46;95867.06;;;19.75;87.52
69171;BME280;56279;47.902;12.308;2023-08-20T05:24:48;95872.56;;;19.79;86.95
69171;BME280;56279;47.902;12.308;2023-08-20T05:27:15;95879.31;;;19.85;86.85
69171;BME280;56279;47.902;12.308;2023-08-20T05:29:20;95877.38;;;19.94;86.44
69171;BME280;56279;47.902;12.308;2023-08-20T05:31:21;95874.34;;;20.04;86.12
69171;BME280;56279;47.902;12.308;2023-08-20T05:33:23;95871.28;;;20.14;85.81
69171;BME280;56279;47.902;12.308;2023-08-20T05:35:25;95875.50;;;20.24;85.76
69171;BME280;56279;47.902;12.308;2023-08-20T05:37:26;95868.34;;;20.36;85.64
69171;BME280;56279;47.902;12.308;2023-08-20T05:39:30;95871.91;;;20.49;84.79
69171;BME280;56279;47.902;12.308;2023-08-20T05:41:31;95863.59;;;20.62;84.53
69171;BME280;56279;47.902;12.308;2023-08-20T05:43:33;95871.50;;;20.80;83.93
69171;BME280;56279;47.902;12.308;2023-08-20T05:45:35;95855.91;;;20.94;83.57
69171;BME280;56279;47.902;12.308;2023-08-20T05:47:36;95866.53;;;21.11;83.05
69171;BME280;56279;47.902;12.308;2023-08-20T05:49:38;95860.09;;;21.24;82.68
69171;BME280;56279;47.902;12.308;2023-08-20T05:51:39;95855.91;;;21.35;82.06
69171;BME280;56279;47.902;12.308;2023-08-20T05:53:41;95850.53;;;21.47;81.79
69171;BME280;56279;47.902;12.308;2023-08-20T05:55:43;95858.81;;;21.54;81.84
69171;BME280;56279;47.902;12.308;2023-08-20T05:57:44;95855.63;;;21.61;81.58
69171;BME280;56279;47.902;12.308;2023-08-20T05:59:46;95852.38;;;21.67;81.26
69171;BME280;56279;47.902;12.308;2023-08-20T06:01:47;95857.53;;;21.72;81.22
69171;BME280;56279;47.902;12.308;2023-08-20T06:03:49;95855.84;;;21.80;81.00
69171;BME280;56279;47.902;12.308;2023-08-20T06:05:50;95861.47;;;21.87;80.44
69171;BME280;56279;47.902;12.308;2023-08-20T06:07:51;95855.22;;;21.95;79.78
69171;BME280;56279;47.902;12.308;2023-08-20T06:09:53;95860.69;;;21.98;79.44
69171;BME280;56279;47.902;12.308;2023-08-20T06:11:54;95863.06;;;22.00;79.41
69171;BME280;56279;47.902;12.308;2023-08-20T06:13:55;95865.41;;;22.01;79.90
69171;BME280;56279;47.902;12.308;2023-08-20T06:15:57;95863.53;;;22.02;79.50
69171;BME280;56279;47.902;12.308;2023-08-20T06:17:58;95864.31;;;22.02;78.83
69171;BME280;56279;47.902;12.308;2023-08-20T06:19:59;95864.31;;;22.02;78.40
69171;BME280;56279;47.902;12.308;2023-08-20T06:22:00;95869.00;;;22.06;78.04
69171;BME280;56279;47.902;12.308;2023-08-20T06:24:02;95875.59;;;22.08;77.45
69171;BME280;56279;47.902;12.308;2023-08-20T06:26:04;95879.88;;;22.09;77.66
69171;BME280;56279;47.902;12.308;2023-08-20T06:28:05;95876.41;;;22.09;77.62
69171;BME280;56279;47.902;12.308;2023-08-20T06:30:07;95884.13;;;22.10;77.59
69171;BME280;56279;47.902;12.308;2023-08-20T06:32:09;95883.00;;;22.11;77.43
69171;BME280;56279;47.902;12.308;2023-08-20T06:34:11;95880.75;;;22.13;76.90
69171;BME280;56279;47.902;12.308;2023-08-20T06:36:12;95890.06;;;22.16;77.02
69171;BME280;56279;47.902;12.308;2023-08-20T06:38:13;95887.81;;;22.18;77.11
69171;BME280;56279;47.902;12.308;2023-08-20T06:40:15;95889.41;;;22.19;77.30
69171;BME280;56279;47.902;12.308;2023-08-20T06:42:16;95880.19;;;22.20;77.48
69171;BME280;56279;47.902;12.308;2023-08-20T06:44:18;95893.31;;;22.21;77.60
69171;BME280;56279;47.902;12.308;2023-08-20T06:46:19;95889.50;;;22.22;77.81
69171;BME280;56279;47.902;12.308;2023-08-20T06:48:20;95878.09;;;22.25;77.62
69171;BME280;56279;47.902;12.308;2023-08-20T06:50:23;95880.09;;;22.28;77.95
69171;BME280;56279;47.902;12.308;2023-08-20T06:52:24;95879.88;;;22.33;77.75
69171;BME280;56279;47.902;12.308;2023-08-20T06:54:25;95886.16;;;22.37;78.13
69171;BME280;56279;47.902;12.308;2023-08-20T06:56:27;95880.88;;;22.41;78.24
69171;BME280;56279;47.902;12.308;2023-08-20T06:58:28;95882.44;;;22.42;78.31
69171;BME280;56279;47.902;12.308;2023-08-20T07:00:29;95880.53;;;22.42;78.63
69171;BME280;56279;47.902;12.308;2023-08-20T07:02:30;95881.31;;;22.43;78.84
69171;BME280;56279;47.902;12.308;2023-08-20T07:04:32;95871.00;;;22.45;78.57
69171;BME280;56279;47.902;12.308;2023-08-20T07:06:37;95875.25;;;22.46;78.78
69171;BME280;56279;47.902;12.308;2023-08-20T07:08:38;95885.56;;;22.44;79.82
69171;BME280;56279;47.902;12.308;2023-08-20T07:10:40;95881.31;;;22.43;79.79
69171;BME280;56279;47.902;12.308;2023-08-20T07:12:41;95887.81;;;22.42;79.26
69171;BME280;56279;47.902;12.308;2023-08-20T07:14:43;95884.91;;;22.47;78.18
69171;BME280;56279;47.902;12.308;2023-08-20T07:16:44;95886.59;;;22.51;77.86
69171;BME280;56279;47.902;12.308;2023-08-20T07:18:45;95885.56;;;22.56;77.68
69171;BME280;56279;47.902;12.308;2023-08-20T07:20:47;95880.63;;;22.58;77.78
69171;BME280;56279;47.902;12.308;2023-08-20T07:22:48;95882.97;;;22.59;77.82
69171;BME280;56279;47.902;12.308;2023-08-20T07:24:49;95884.56;;;22.60;77.40
69171;BME280;56279;47.902;12.308;2023-08-20T07:26:54;95886.59;;;22.63;77.72
69171;BME280;56279;47.902;12.308;2023-08-20T07:29:01;95885.56;;;22.68;76.90
69171;BME280;56279;47.902;12.308;2023-08-20T07:31:02;95890.25;;;22.71;76.54
69171;BME280;56279;47.902;12.308;2023-08-20T07:33:06;95890.03;;;22.76;75.85
69171;BME280;56279;47.902;12.308;2023-08-20T07:35:07;95887.91;;;22.82;75.74
69171;BME280;56279;47.902;12.308;2023-08-20T07:37:09;95891.47;;;22.86;75.97
69171;BME280;56279;47.902;12.308;2023-08-20T07:39:11;95892.03;;;22.91;75.85
69171;BME280;56279;47.902;12.308;2023-08-20T07:41:15;95890.31;;;22.99;75.60
69171;BME280;56279;47.902;12.308;2023-08-20T07:43:16;95896.25;;;23.04;75.46
69171;BME280;56279;47.902;12.308;2023-08-20T07:45:18;95896.00;;;23.09;75.02
69171;BME280;56279;47.902;12.308;2023-08-20T07:47:19;95896.56;;;23.15;74.96
69171;BME280;56279;47.902;12.308;2023-08-20T07:49:20;95898.22;;;23.19;74.46
69171;BME280;56279;47.902;12.308;2023-08-20T07:51:25;95899.53;;;23.25;74.22
69171;BME280;56279;47.902;12.308;2023-08-20T07:53:26;95899.72;;;23.32;73.76
69171;BME280;56279;47.902;12.308;2023-08-20T07:55:27;95905.69;;;23.38;73.48
69171;BME280;56279;47.902;12.308;2023-08-20T07:57:29;95906.44;;;23.38;73.51
69171;BME280;56279;47.902;12.308;2023-08-20T07:59:30;95904.22;;;23.41;73.64
69171;BME280;56279;47.902;12.308;2023-08-20T08:01:31;95907.78;;;23.45;73.87
69171;BME280;56279;47.902;12.308;2023-08-20T08:03:33;95910.91;;;23.47;73.09
69171;BME280;56279;47.902;12.308;2023-08-20T08:05:34;95917.72;;;23.56;72.44
69171;BME280;56279;47.902;12.308;2023-08-20T08:07:35;95916.69;;;23.61;72.58
69171;BME280;56279;47.902;12.308;2023-08-20T08:09:37;95916.00;;;23.64;72.52
69171;BME280;56279;47.902;12.308;2023-08-20T08:11:38;95918.78;;;23.67;72.09
69171;BME280;56279;47.902;12.308;2023-08-20T08:13:39;95917.75;;;23.72;72.47
69171;BME280;56279;47.902;12.308;2023-08-20T08:15:41;95912.47;;;23.75;72.58
69171;BME280;56279;47.902;12.308;2023-08-20T08:17:44;95914.13;;;23.80;72.39
69171;BME280;56279;47.902;12.308;2023-08-20T08:19:45;95919.94;;;23.82;72.59
69171;BME280;56279;47.902;12.308;2023-08-20T08:21:47;95916.56;;;23.85;71.80
69171;BME280;56279;47.902;12.308;2023-08-20T08:23:48;95922.41;;;23.87;71.95
69171;BME280;56279;47.902;12.308;2023-08-20T08:25:50;95923.69;;;23.93;71.99
69171;BME280;56279;47.902;12.308;2023-08-20T08:27:51;95921.53;;;23.98;71.96
69171;BME280;56279;47.902;12.308;2023-08-20T08:29:52;95925.97;;;24.07;72.18
69171;BME280;56279;47.902;12.308;2023-08-20T08:31:54;95922.25;;;24.11;71.99
69171;BME280;56279;47.902;12.308;2023-08-20T08:33:55;95922.00;;;24.16;72.20
69171;BME280;56279;47.902;12.308;2023-08-20T08:35:56;95925.66;;;24.24;72.20
69171;BME280;56279;47.902;12.308;2023-08-20T08:37:58;95923.13;;;24.31;71.88
69171;BME280;56279;47.902;12.308;2023-08-20T08:39:59;95920.94;;;24.36;71.67
69171;BME280;56279;47.902;12.308;2023-08-20T08:42:02;95925.72;;;24.43;71.32
69171;BME280;56279;47.902;12.308;2023-08-20T08:44:08;95926.69;;;24.50;71.39
69171;BME280;56279;47.902;12.308;2023-08-20T08:46:13;95928.41;;;24.58;70.21
69171;BME280;56279;47.902;12.308;2023-08-20T08:48:15;95929.00;;;24.67;70.38
69171;BME280;56279;47.902;12.308;2023-08-20T08:50:18;95929.59;;;24.77;70.32
69171;BME280;56279;47.902;12.308;2023-08-20T08:52:21;95924.78;;;24.86;69.55
69171;BME280;56279;47.902;12.308;2023-08-20T08:54:23;95929.28;;;24.97;69.14
69171;BME280;56279;47.902;12.308;2023-08-20T08:56:25;95929.53;;;25.08;68.61
69171;BME280;56279;47.902;12.308;2023-08-20T08:58:28;95932.88;;;25.20;67.45
69171;BME280;56279;47.902;12.308;2023-08-20T09:00:30;95936.22;;;25.33;68.18
69171;BME280;56279;47.902;12.308;2023-08-20T09:02:34;95928.94;;;25.37;66.20
69171;BME280;56279;47.902;12.308;2023-08-20T09:04:38;95940.38;;;25.46;65.25
69171;BME280;56279;47.902;12.308;2023-08-20T09:06:48;95942.91;;;25.58;65.50
69171;BME280;56279;47.902;12.308;2023-08-20T09:08:50;95942.34;;;25.68;65.09
69171;BME280;56279;47.902;12.308;2023-08-20T09:10:52;95943.31;;;25.79;64.81
69171;BME280;56279;47.902;12.308;2023-08-20T09:12:55;95947.38;;;25.89;63.67
69171;BME280;56279;47.902;12.308;2023-08-20T09:14:58;95952.56;;;25.97;62.79
69171;BME280;56279;47.902;12.308;2023-08-20T09:17:01;95948.81;;;26.05;62.32
69171;BME280;56279;47.902;12.308;2023-08-20T09:19:03;95957.88;;;26.13;61.18
69171;BME280;56279;47.902;12.308;2023-08-20T09:21:09;95951.03;;;26.19;61.50
69171;BME280;56279;47.902;12.308;2023-08-20T09:23:12;95958.78;;;26.21;61.07
69171;BME280;56279;47.902;12.308;2023-08-20T09:25:16;95952.47;;;26.13;60.66
69171;BME280;56279;47.902;12.308;2023-08-20T09:27:18;95956.31;;;26.12;58.94
69171;BME280;56279;47.902;12.308;2023-08-20T09:29:19;95956.31;;;26.12;56.04
69171;BME280;56279;47.902;12.308;2023-08-20T09:31:36;95961.06;;;26.19;56.10
69171;BME280;56279;47.902;12.308;2023-08-20T09:33:53;95958.06;;;26.24;56.12
69171;BME280;56279;47.902;12.308;2023-08-20T09:35:55;95956.50;;;26.23;55.46
69171;BME280;56279;47.902;12.308;2023-08-20T09:38:00;95958.47;;;26.26;55.10
69171;BME280;56279;47.902;12.308;2023-08-20T09:40:02;95956.22;;;26.28;55.18
69171;BME280;56279;47.902;12.308;2023-08-20T09:42:05;95956.56;;;26.26;55.54
69171;BME280;56279;47.902;12.308;2023-08-20T09:44:07;95958.19;;;26.31;55.32
69171;BME280;56279;47.902;12.308;2023-08-20T09:46:10;95958.28;;;26.38;56.09
69171;BME280;56279;47.902;12.308;2023-08-20T09:48:13;95956.06;;;26.43;57.87
69171;BME280;56279;47.902;12.308;2023-08-20T09:50:19;95953.38;;;26.43;56.72
69171;BME280;56279;47.902;12.308;2023-08-20T09:52:31;95960.44;;;26.51;56.15
69171;BME280;56279;47.902;12.308;2023-08-20T09:54:50;95957.09;;;26.58;56.62
69171;BME280;56279;47.902;12.308;2023-08-20T09:56:54;95950.16;;;26.60;55.80
69171;BME280;56279;47.902;12.308;2023-08-20T09:58:59;95951.00;;;26.64;55.84
69171;BME280;56279;47.902;12.308;2023-08-20T10:01:01;95950.22;;;26.64;56.06
69171;BME280;56279;47.902;12.308;2023-08-20T10:03:03;95942.03;;;26.60;55.10
69171;BME280;56279;47.902;12.308;2023-08-20T10:05:08;95945.09;;;26.59;55.41
69171;BME280;56279;47.902;12.308;2023-08-20T10:07:11;95947.00;;;26.58;56.07
69171;BME280;56279;47.902;12.308;2023-08-20T10:09:13;95942.81;;;26.61;56.39
69171;BME280;56279;47.902;12.308;2023-08-20T10:11:15;95943.22;;;26.63;56.16
69171;BME280;56279;47.902;12.308;2023-08-20T10:13:18;95940.50;;;26.63;56.20
69171;BME280;56279;47.902;12.308;2023-08-20T10:15:20;95944.06;;;26.67;56.00
69171;BME280;56279;47.902;12.308;2023-08-20T10:17:23;95937.97;;;26.73;56.29
69171;BME280;56279;47.902;12.308;2023-08-20T10:19:25;95938.91;;;26.81;56.29
69171;BME280;56279;47.902;12.308;2023-08-20T10:21:26;95929.25;;;26.84;56.70
69171;BME280;56279;47.902;12.308;2023-08-20T10:23:28;95932.78;;;26.88;56.68
69171;BME280;56279;47.902;12.308;2023-08-20T10:25:30;95927.41;;;26.91;56.55
69171;BME280;56279;47.902;12.308;2023-08-20T10:27:33;95924.75;;;26.95;57.22
69171;BME280;56279;47.902;12.308;2023-08-20T10:31:46;95921.97;;;26.91;56.92
69171;BME280;56279;47.902;12.308;2023-08-20T10:33:55;95929.00;;;26.96;57.95
69171;BME280;56279;47.902;12.308;2023-08-20T10:35:57;95926.41;;;27.03;57.99
69171;BME280;56279;47.902;12.308;2023-08-20T10:40:07;95919.25;;;27.17;57.24
69171;BME280;56279;47.902;12.308;2023-08-20T10:42:09;95918.91;;;27.22;57.81
69171;BME280;56279;47.902;12.308;2023-08-20T10:44:14;95914.31;;;27.26;58.13
69171;BME280;56279;47.902;12.308;2023-08-20T10:48:20;95912.88;;;27.36;58.60
69171;BME280;56279;47.902;12.308;2023-08-20T10:50:21;95916.44;;;27.40;58.80
69171;BME280;56279;47.902;12.308;2023-08-20T10:52:23;95913.88;;;27.51;57.56
69171;BME280;56279;47.902;12.308;2023-08-20T10:54:25;95917.03;;;27.56;57.33